sensor_id;sensor_type;location;lat;lon;timestamp;temperature;humidity
15262;DHT22;7733;51.554;13.590;2023-04-01T00:00:58;9.70;99.90
15262;DHT22;7733;51.554;13.590;2023-04-01T00:03:26;9.70;99.90
15262;DHT22;7733;51.554;13.590;2023-04-01T00:05:54;9.70;99.90
15262;DHT22;7733;51.554;13.590;2023-04-01T00:08:21;9.70;99.90
15262;DHT22;7733;51.554;13.590;2023-04-01T00:10:48;9.70;99.90
15262;DHT22;7733;51.554;13.590;2023-04-01T00:13:13;9.70;99.90
15262;DHT22;7733;51.554;13.590;2023-04-01T00:15:40;9.70;99.90
15262;DHT22;7733;51.554;13.590;2023-04-01T00:18:07;9.60;99.90
15262;DHT22;7733;51.554;13.590;2023-04-01T00:20:34;9.60;99.90
15262;DHT22;7733;51.554;13.590;2023-04-01T00:22:59;9.60;99.90
15262;DHT22;7733;51.554;13.590;2023-04-01T00:25:25;9.60;99.90
15262;DHT22;7733;51.554;13.590;2023-04-01T00:27:51;9.60;99.90
15262;DHT22;7733;51.554;13.590;2023-04-01T00:30:17;9.60;99.90
15262;DHT22;7733;51.554;13.590;2023-04-01T00:32:43;9.60;99.90
15262;DHT22;7733;51.554;13.590;2023-04-01T00:35:09;9.60;99.90
15262;DHT22;7733;51.554;13.590;2023-04-01T00:37:36;9.60;99.90
15262;DHT22;7733;51.554;13.590;2023-04-01T00:40:07;9.60;99.90
15262;DHT22;7733;51.554;13.590;2023-04-01T00:42:45;9.60;99.90
15262;DHT22;7733;51.554;13.590;2023-04-01T00:45:36;9.60;99.90
15262;DHT22;7733;51.554;13.590;2023-04-01T00:48:30;9.60;99.90
15262;DHT22;7733;51.554;13.590;2023-04-01T00:51:07;9.60;99.90
15262;DHT22;7733;51.554;13.590;2023-04-01T00:53:40;9.60;99.90
15262;DHT22;7733;51.554;13.590;2023-04-01T00:56:17;9.70;99.90
15262;DHT22;7733;51.554;13.590;2023-04-01T00:58:51;9.60;99.90
15262;DHT22;7733;51.554;13.590;2023-04-01T01:01:36;9.60;99.90
15262;DHT22;7733;51.554;13.590;2023-04-01T01:04:03;9.70;99.90
15262;DHT22;7733;51.554;13.590;2023-04-01T01:12:19;9.70;99.90
15262;DHT22;7733;51.554;13.590;2023-04-01T01:15:06;9.60;99.90
15262;DHT22;7733;51.554;13.590;2023-04-01T01:37:37;9.70;99.90
15262;DHT22;7733;51.554;13.590;2023-04-01T01:40:07;9.70;99.90
15262;DHT22;7733;51.554;13.590;2023-04-01T01:42:39;9.60;99.90
15262;DHT22;7733;51.554;13.590;2023-04-01T01:45:11;9.60;99.90
15262;DHT22;7733;51.554;13.590;2023-04-01T01:47:40;9.70;99.90
15262;DHT22;7733;51.554;13.590;2023-04-01T01:50:08;9.60;99.90
15262;DHT22;7733;51.554;13.590;2023-04-01T01:52:35;9.60;99.90
15262;DHT22;7733;51.554;13.590;2023-04-01T01:55:00;9.60;99.90
15262;DHT22;7733;51.554;13.590;2023-04-01T01:57:30;9.70;99.90
15262;DHT22;7733;51.554;13.590;2023-04-01T02:00:04;9.70;99.90
15262;DHT22;7733;51.554;13.590;2023-04-01T02:02:40;9.70;99.90
15262;DHT22;7733;51.554;13.590;2023-04-01T02:05:10;9.80;99.90
15262;DHT22;7733;51.554;13.590;2023-04-01T02:07:38;9.70;99.90
15262;DHT22;7733;51.554;13.590;2023-04-01T02:10:08;9.70;99.90
15262;DHT22;7733;51.554;13.590;2023-04-01T02:12:35;9.80;99.90
15262;DHT22;7733;51.554;13.590;2023-04-01T02:15:08;9.80;99.90
15262;DHT22;7733;51.554;13.590;2023-04-01T02:17:39;9.70;99.90
15262;DHT22;7733;51.554;13.590;2023-04-01T02:20:13;9.70;99.90
15262;DHT22;7733;51.554;13.590;2023-04-01T02:22:52;9.70;99.90
15262;DHT22;7733;51.554;13.590;2023-04-01T02:25:33;9.70;99.90
15262;DHT22;7733;51.554;13.590;2023-04-01T02:28:02;9.70;99.90
15262;DHT22;7733;51.554;13.590;2023-04-01T02:30:33;9.70;99.90
15262;DHT22;7733;51.554;13.590;2023-04-01T02:33:03;9.70;99.90
15262;DHT22;7733;51.554;13.590;2023-04-01T02:35:33;9.60;99.90
15262;DHT22;7733;51.554;13.590;2023-04-01T02:38:01;9.60;99.90
15262;DHT22;7733;51.554;13.590;2023-04-01T02:40:27;9.60;99.90
15262;DHT22;7733;51.554;13.590;2023-04-01T02:42:53;9.60;99.90
15262;DHT22;7733;51.554;13.590;2023-04-01T02:45:18;9.60;99.90
15262;DHT22;7733;51.554;13.590;2023-04-01T02:47:44;9.50;99.90
15262;DHT22;7733;51.554;13.590;2023-04-01T02:50:10;9.50;99.90
15262;DHT22;7733;51.554;13.590;2023-04-01T02:52:36;9.50;99.90
15262;DHT22;7733;51.554;13.590;2023-04-01T02:55:03;9.50;99.90
15262;DHT22;7733;51.554;13.590;2023-04-01T02:57:29;9.50;99.90
15262;DHT22;7733;51.554;13.590;2023-04-01T02:59:55;9.50;99.90
15262;DHT22;7733;51.554;13.590;2023-04-01T03:02:20;9.50;99.90
15262;DHT22;7733;51.554;13.590;2023-04-01T03:04:46;9.50;99.90
15262;DHT22;7733;51.554;13.590;2023-04-01T03:07:12;9.50;99.90
15262;DHT22;7733;51.554;13.590;2023-04-01T03:09:38;9.40;99.90
15262;DHT22;7733;51.554;13.590;2023-04-01T03:12:05;9.50;99.90
15262;DHT22;7733;51.554;13.590;2023-04-01T03:14:31;9.50;99.90
15262;DHT22;7733;51.554;13.590;2023-04-01T03:16:57;9.50;99.90
15262;DHT22;7733;51.554;13.590;2023-04-01T03:19:22;9.50;99.90
15262;DHT22;7733;51.554;13.590;2023-04-01T03:21:48;9.50;99.90
15262;DHT22;7733;51.554;13.590;2023-04-01T03:24:14;9.50;99.90
15262;DHT22;7733;51.554;13.590;2023-04-01T03:26:40;9.50;99.90
15262;DHT22;7733;51.554;13.590;2023-04-01T03:29:05;9.50;99.90
15262;DHT22;7733;51.554;13.590;2023-04-01T03:31:31;9.50;99.90
15262;DHT22;7733;51.554;13.590;2023-04-01T03:33:57;9.50;99.90
15262;DHT22;7733;51.554;13.590;2023-04-01T03:36:22;9.50;99.90
15262;DHT22;7733;51.554;13.590;2023-04-01T03:38:48;9.50;99.90
15262;DHT22;7733;51.554;13.590;2023-04-01T03:41:16;9.50;99.90
15262;DHT22;7733;51.554;13.590;2023-04-01T03:43:43;9.60;99.90
15262;DHT22;7733;51.554;13.590;2023-04-01T03:46:09;9.60;99.90
15262;DHT22;7733;51.554;13.590;2023-04-01T03:48:35;9.60;99.90
15262;DHT22;7733;51.554;13.590;2023-04-01T03:51:01;9.60;99.90
15262;DHT22;7733;51.554;13.590;2023-04-01T03:53:27;9.70;99.90
15262;DHT22;7733;51.554;13.590;2023-04-01T03:55:53;9.70;99.90
15262;DHT22;7733;51.554;13.590;2023-04-01T03:58:19;9.70;99.90
15262;DHT22;7733;51.554;13.590;2023-04-01T04:00:45;9.70;99.90
15262;DHT22;7733;51.554;13.590;2023-04-01T04:03:11;9.80;99.90
15262;DHT22;7733;51.554;13.590;2023-04-01T04:05:37;9.80;99.90
15262;DHT22;7733;51.554;13.590;2023-04-01T04:08:03;9.80;99.90
15262;DHT22;7733;51.554;13.590;2023-04-01T04:10:29;9.80;99.90
15262;DHT22;7733;51.554;13.590;2023-04-01T04:12:55;9.80;99.90
15262;DHT22;7733;51.554;13.590;2023-04-01T04:15:22;9.70;99.90
15262;DHT22;7733;51.554;13.590;2023-04-01T04:17:48;9.70;99.90
15262;DHT22;7733;51.554;13.590;2023-04-01T04:20:14;9.70;99.90
15262;DHT22;7733;51.554;13.590;2023-04-01T04:22:40;9.60;99.90
15262;DHT22;7733;51.554;13.590;2023-04-01T04:25:06;9.70;99.90
15262;DHT22;7733;51.554;13.590;2023-04-01T04:27:33;9.70;99.90
15262;DHT22;7733;51.554;13.590;2023-04-01T04:29:59;9.70;99.90
15262;DHT22;7733;51.554;13.590;2023-04-01T04:32:25;9.80;99.90
15262;DHT22;7733;51.554;13.590;2023-04-01T04:34:50;9.80;99.90
15262;DHT22;7733;51.554;13.590;2023-04-01T04:37:16;9.80;99.90
15262;DHT22;7733;51.554;13.590;2023-04-01T04:39:42;9.70;99.90
15262;DHT22;7733;51.554;13.590;2023-04-01T04:42:07;9.70;99.90
15262;DHT22;7733;51.554;13.590;2023-04-01T04:44:33;9.60;99.90
15262;DHT22;7733;51.554;13.590;2023-04-01T04:46:59;9.60;99.90
15262;DHT22;7733;51.554;13.590;2023-04-01T04:49:24;9.70;99.90
15262;DHT22;7733;51.554;13.590;2023-04-01T04:51:50;9.70;99.90
15262;DHT22;7733;51.554;13.590;2023-04-01T04:54:17;9.70;99.90
15262;DHT22;7733;51.554;13.590;2023-04-01T04:56:43;9.70;99.90
15262;DHT22;7733;51.554;13.590;2023-04-01T04:59:09;9.70;99.90
15262;DHT22;7733;51.554;13.590;2023-04-01T05:01:34;9.70;99.90
15262;DHT22;7733;51.554;13.590;2023-04-01T05:04:00;9.60;99.90
15262;DHT22;7733;51.554;13.590;2023-04-01T05:06:26;9.60;99.90
15262;DHT22;7733;51.554;13.590;2023-04-01T05:08:55;9.60;99.90
15262;DHT22;7733;51.554;13.590;2023-04-01T05:11:22;9.60;99.90
15262;DHT22;7733;51.554;13.590;2023-04-01T05:13:48;9.60;99.90
15262;DHT22;7733;51.554;13.590;2023-04-01T05:16:17;9.60;99.90
15262;DHT22;7733;51.554;13.590;2023-04-01T05:18:45;9.60;99.90
15262;DHT22;7733;51.554;13.590;2023-04-01T05:21:13;9.70;99.90
15262;DHT22;7733;51.554;13.590;2023-04-01T05:23:40;9.60;99.90
15262;DHT22;7733;51.554;13.590;2023-04-01T05:26:14;9.60;99.90
15262;DHT22;7733;51.554;13.590;2023-04-01T05:28:40;9.60;99.90
15262;DHT22;7733;51.554;13.590;2023-04-01T05:31:07;9.60;99.90
15262;DHT22;7733;51.554;13.590;2023-04-01T05:33:33;9.70;99.90
15262;DHT22;7733;51.554;13.590;2023-04-01T05:36:14;9.70;99.90
15262;DHT22;7733;51.554;13.590;2023-04-01T05:38:41;9.60;99.90
15262;DHT22;7733;51.554;13.590;2023-04-01T05:41:09;9.60;99.90
15262;DHT22;7733;51.554;13.590;2023-04-01T05:43:38;9.70;99.90
15262;DHT22;7733;51.554;13.590;2023-04-01T05:46:05;9.60;99.90
15262;DHT22;7733;51.554;13.590;2023-04-01T05:48:32;9.70;99.90
15262;DHT22;7733;51.554;13.590;2023-04-01T05:51:00;9.70;99.90
15262;DHT22;7733;51.554;13.590;2023-04-01T05:53:26;9.70;99.90
15262;DHT22;7733;51.554;13.590;2023-04-01T05:55:52;9.80;99.90
15262;DHT22;7733;51.554;13.590;2023-04-01T06:00:51;9.80;99.90
15262;DHT22;7733;51.554;13.590;2023-04-01T06:03:16;9.90;99.90
15262;DHT22;7733;51.554;13.590;2023-04-01T06:05:44;9.90;99.90
15262;DHT22;7733;51.554;13.590;2023-04-01T06:08:13;10.00;99.90
15262;DHT22;7733;51.554;13.590;2023-04-01T06:10:53;9.90;99.90
15262;DHT22;7733;51.554;13.590;2023-04-01T06:25:29;10.20;99.90
15262;DHT22;7733;51.554;13.590;2023-04-01T06:31:11;10.30;99.90
15262;DHT22;7733;51.554;13.590;2023-04-01T06:46:12;10.50;99.90
15262;DHT22;7733;51.554;13.590;2023-04-01T06:54:34;10.30;99.90
15262;DHT22;7733;51.554;13.590;2023-04-01T06:57:24;10.30;99.90
15262;DHT22;7733;51.554;13.590;2023-04-01T06:59:59;10.20;99.90
15262;DHT22;7733;51.554;13.590;2023-04-01T07:05:14;10.20;99.90
15262;DHT22;7733;51.554;13.590;2023-04-01T07:07:49;10.30;99.90
15262;DHT22;7733;51.554;13.590;2023-04-01T07:13:31;10.40;99.90
15262;DHT22;7733;51.554;13.590;2023-04-01T07:16:46;10.40;99.90
15262;DHT22;7733;51.554;13.590;2023-04-01T07:19:26;10.40;99.90
15262;DHT22;7733;51.554;13.590;2023-04-01T07:28:10;10.50;99.90
15262;DHT22;7733;51.554;13.590;2023-04-01T07:33:54;10.60;99.90
15262;DHT22;7733;51.554;13.590;2023-04-01T07:45:23;10.70;99.90
15262;DHT22;7733;51.554;13.590;2023-04-01T07:48:19;10.60;99.90
15262;DHT22;7733;51.554;13.590;2023-04-01T07:51:21;10.90;99.90
15262;DHT22;7733;51.554;13.590;2023-04-01T07:56:36;10.80;99.90
15262;DHT22;7733;51.554;13.590;2023-04-01T07:59:24;10.70;99.90
15262;DHT22;7733;51.554;13.590;2023-04-01T08:05:26;10.60;99.90
15262;DHT22;7733;51.554;13.590;2023-04-01T08:08:10;10.60;99.90
15262;DHT22;7733;51.554;13.590;2023-04-01T08:10:52;10.60;99.90
15262;DHT22;7733;51.554;13.590;2023-04-01T08:19:30;10.80;99.90
15262;DHT22;7733;51.554;13.590;2023-04-01T08:22:36;10.90;99.90
15262;DHT22;7733;51.554;13.590;2023-04-01T08:25:13;10.90;99.90
15262;DHT22;7733;51.554;13.590;2023-04-01T08:28:23;10.90;99.90
15262;DHT22;7733;51.554;13.590;2023-04-01T08:30:58;11.00;99.90
15262;DHT22;7733;51.554;13.590;2023-04-01T08:33:31;11.00;99.90
15262;DHT22;7733;51.554;13.590;2023-04-01T08:36:23;11.00;99.90
15262;DHT22;7733;51.554;13.590;2023-04-01T08:39:03;11.00;99.90
15262;DHT22;7733;51.554;13.590;2023-04-01T08:55:51;11.00;99.90
15262;DHT22;7733;51.554;13.590;2023-04-01T09:14:25;11.10;99.90
15262;DHT22;7733;51.554;13.590;2023-04-01T09:17:05;11.20;99.90
15262;DHT22;7733;51.554;13.590;2023-04-01T09:29:12;11.60;99.90
15262;DHT22;7733;51.554;13.590;2023-04-01T09:40:56;11.70;99.90
15262;DHT22;7733;51.554;13.590;2023-04-01T09:43:27;11.50;99.90
15262;DHT22;7733;51.554;13.590;2023-04-01T09:54:32;11.20;99.90
15262;DHT22;7733;51.554;13.590;2023-04-01T10:21:30;12.00;99.90
15262;DHT22;7733;51.554;13.590;2023-04-01T10:33:47;12.00;99.90
15262;DHT22;7733;51.554;13.590;2023-04-01T10:36:58;11.80;99.90
15262;DHT22;7733;51.554;13.590;2023-04-01T10:48:50;11.90;99.90
15262;DHT22;7733;51.554;13.590;2023-04-01T10:55:31;11.70;99.90
15262;DHT22;7733;51.554;13.590;2023-04-01T10:58:45;11.70;99.90
15262;DHT22;7733;51.554;13.590;2023-04-01T11:16:36;12.00;99.90
15262;DHT22;7733;51.554;13.590;2023-04-01T11:19:32;11.90;99.90
15262;DHT22;7733;51.554;13.590;2023-04-01T11:25:36;11.90;99.90
15262;DHT22;7733;51.554;13.590;2023-04-01T11:29:09;12.10;99.90
15262;DHT22;7733;51.554;13.590;2023-04-01T11:34:32;11.90;99.90
15262;DHT22;7733;51.554;13.590;2023-04-01T11:42:46;11.80;99.90
15262;DHT22;7733;51.554;13.590;2023-04-01T11:51:16;12.00;99.90
15262;DHT22;7733;51.554;13.590;2023-04-01T12:05:58;12.30;99.90
15262;DHT22;7733;51.554;13.590;2023-04-01T12:11:22;12.60;99.90
15262;DHT22;7733;51.554;13.590;2023-04-01T12:14:22;12.70;99.90
15262;DHT22;7733;51.554;13.590;2023-04-01T12:17:38;12.80;99.90
15262;DHT22;7733;51.554;13.590;2023-04-01T12:22:49;12.80;99.90
15262;DHT22;7733;51.554;13.590;2023-04-01T12:31:41;12.90;99.90
15262;DHT22;7733;51.554;13.590;2023-04-01T12:37:42;12.90;99.90
15262;DHT22;7733;51.554;13.590;2023-04-01T12:45:35;13.20;99.90
15262;DHT22;7733;51.554;13.590;2023-04-01T13:21:12;12.20;99.90
15262;DHT22;7733;51.554;13.590;2023-04-01T13:29:21;11.70;99.90
15262;DHT22;7733;51.554;13.590;2023-04-01T13:32:18;11.60;99.90
15262;DHT22;7733;51.554;13.590;2023-04-01T13:40:36;11.90;99.90
15262;DHT22;7733;51.554;13.590;2023-04-01T13:43:37;11.90;99.90
15262;DHT22;7733;51.554;13.590;2023-04-01T13:46:59;11.70;99.90
15262;DHT22;7733;51.554;13.590;2023-04-01T14:01:15;11.70;99.90
15262;DHT22;7733;51.554;13.590;2023-04-01T14:10:38;12.10;99.90
15262;DHT22;7733;51.554;13.590;2023-04-01T14:21:50;12.40;99.90
15262;DHT22;7733;51.554;13.590;2023-04-01T14:24:52;12.60;99.90
15262;DHT22;7733;51.554;13.590;2023-04-01T14:27:51;12.60;99.90
15262;DHT22;7733;51.554;13.590;2023-04-01T14:36:41;12.90;99.90
15262;DHT22;7733;51.554;13.590;2023-04-01T14:39:38;12.70;99.90
15262;DHT22;7733;51.554;13.590;2023-04-01T14:48:49;12.90;99.90
15262;DHT22;7733;51.554;13.590;2023-04-01T14:51:33;13.00;99.90
15262;DHT22;7733;51.554;13.590;2023-04-01T15:02:57;12.60;99.90
15262;DHT22;7733;51.554;13.590;2023-04-01T15:05:47;12.60;99.90
15262;DHT22;7733;51.554;13.590;2023-04-01T15:14:10;12.60;99.90
15262;DHT22;7733;51.554;13.590;2023-04-01T15:17:04;12.60;99.90
15262;DHT22;7733;51.554;13.590;2023-04-01T15:26:22;12.60;99.90
15262;DHT22;7733;51.554;13.590;2023-04-01T15:32:49;12.40;99.90
15262;DHT22;7733;51.554;13.590;2023-04-01T15:35:33;12.30;99.90
15262;DHT22;7733;51.554;13.590;2023-04-01T15:41:14;12.40;99.90
15262;DHT22;7733;51.554;13.590;2023-04-01T15:43:46;12.30;99.90
15262;DHT22;7733;51.554;13.590;2023-04-01T15:46:47;12.30;99.90
15262;DHT22;7733;51.554;13.590;2023-04-01T16:00:31;11.90;99.90
15262;DHT22;7733;51.554;13.590;2023-04-01T16:20:23;11.40;99.90
15262;DHT22;7733;51.554;13.590;2023-04-01T16:23:04;11.40;99.90
15262;DHT22;7733;51.554;13.590;2023-04-01T16:25:49;11.40;99.90
15262;DHT22;7733;51.554;13.590;2023-04-01T16:28:33;11.40;99.90
15262;DHT22;7733;51.554;13.590;2023-04-01T16:34:17;11.40;99.90
15262;DHT22;7733;51.554;13.590;2023-04-01T16:37:08;11.10;99.90
15262;DHT22;7733;51.554;13.590;2023-04-01T16:43:10;11.20;99.90
15262;DHT22;7733;51.554;13.590;2023-04-01T16:45:51;11.20;99.90
15262;DHT22;7733;51.554;13.590;2023-04-01T16:51:23;11.30;99.90
15262;DHT22;7733;51.554;13.590;2023-04-01T16:56:41;11.20;99.90
15262;DHT22;7733;51.554;13.590;2023-04-01T16:59:34;11.20;99.90
15262;DHT22;7733;51.554;13.590;2023-04-01T17:04:48;11.20;99.90
15262;DHT22;7733;51.554;13.590;2023-04-01T17:24:39;10.70;99.90
15262;DHT22;7733;51.554;13.590;2023-04-01T17:30:26;10.70;99.90
15262;DHT22;7733;51.554;13.590;2023-04-01T17:33:06;10.70;99.90
15262;DHT22;7733;51.554;13.590;2023-04-01T17:50:35;10.20;99.90
15262;DHT22;7733;51.554;13.590;2023-04-01T17:53:45;10.10;99.90
15262;DHT22;7733;51.554;13.590;2023-04-01T17:56:33;10.00;99.90
15262;DHT22;7733;51.554;13.590;2023-04-01T18:10:55;10.00;99.90
15262;DHT22;7733;51.554;13.590;2023-04-01T18:16:52;9.90;99.90
15262;DHT22;7733;51.554;13.590;2023-04-01T18:31:08;9.60;99.90
15262;DHT22;7733;51.554;13.590;2023-04-01T18:36:55;9.50;99.90
15262;DHT22;7733;51.554;13.590;2023-04-01T18:39:38;9.50;99.90
15262;DHT22;7733;51.554;13.590;2023-04-01T18:42:43;9.50;99.90
15262;DHT22;7733;51.554;13.590;2023-04-01T18:45:30;9.50;99.90
15262;DHT22;7733;51.554;13.590;2023-04-01T18:51:10;9.30;99.90
15262;DHT22;7733;51.554;13.590;2023-04-01T18:54:00;9.40;99.90
15262;DHT22;7733;51.554;13.590;2023-04-01T18:56:38;9.30;99.90
15262;DHT22;7733;51.554;13.590;2023-04-01T18:59:27;9.30;99.90
15262;DHT22;7733;51.554;13.590;2023-04-01T19:02:16;9.30;99.90
15262;DHT22;7733;51.554;13.590;2023-04-01T19:05:04;9.30;99.90
15262;DHT22;7733;51.554;13.590;2023-04-01T19:13:21;9.20;99.90
15262;DHT22;7733;51.554;13.590;2023-04-01T19:16:24;9.10;99.90
15262;DHT22;7733;51.554;13.590;2023-04-01T19:21:58;9.10;99.90
15262;DHT22;7733;51.554;13.590;2023-04-01T19:24:45;9.20;99.90
15262;DHT22;7733;51.554;13.590;2023-04-01T19:27:28;9.20;99.90
15262;DHT22;7733;51.554;13.590;2023-04-01T19:33:49;9.10;99.90
15262;DHT22;7733;51.554;13.590;2023-04-01T19:36:54;8.90;99.90
15262;DHT22;7733;51.554;13.590;2023-04-01T19:51:36;8.70;99.90
15262;DHT22;7733;51.554;13.590;2023-04-01T19:57:23;8.80;99.90
15262;DHT22;7733;51.554;13.590;2023-04-01T20:03:07;8.80;99.90
15262;DHT22;7733;51.554;13.590;2023-04-01T20:11:34;8.80;99.90
15262;DHT22;7733;51.554;13.590;2023-04-01T20:14:25;8.60;99.90
15262;DHT22;7733;51.554;13.590;2023-04-01T20:17:24;8.50;99.90
15262;DHT22;7733;51.554;13.590;2023-04-01T20:25:24;8.30;99.90
15262;DHT22;7733;51.554;13.590;2023-04-01T20:28:20;8.40;99.90
15262;DHT22;7733;51.554;13.590;2023-04-01T20:33:47;8.20;99.90
15262;DHT22;7733;51.554;13.590;2023-04-01T20:39:22;8.10;99.90
15262;DHT22;7733;51.554;13.590;2023-04-01T20:47:58;8.00;99.90
15262;DHT22;7733;51.554;13.590;2023-04-01T20:53:35;8.10;99.90
15262;DHT22;7733;51.554;13.590;2023-04-01T21:05:09;7.80;99.90
15262;DHT22;7733;51.554;13.590;2023-04-01T21:07:54;7.80;99.90
15262;DHT22;7733;51.554;13.590;2023-04-01T21:10:56;7.70;99.90
15262;DHT22;7733;51.554;13.590;2023-04-01T21:31:00;7.30;99.90
15262;DHT22;7733;51.554;13.590;2023-04-01T21:37:22;7.20;99.90
15262;DHT22;7733;51.554;13.590;2023-04-01T22:01:26;7.10;99.90
15262;DHT22;7733;51.554;13.590;2023-04-01T22:03:54;7.10;99.90
15262;DHT22;7733;51.554;13.590;2023-04-01T22:06:42;7.00;99.90
15262;DHT22;7733;51.554;13.590;2023-04-01T22:09:25;6.90;99.90
15262;DHT22;7733;51.554;13.590;2023-04-01T22:20:59;6.80;99.90
15262;DHT22;7733;51.554;13.590;2023-04-01T22:32:21;6.80;99.90
15262;DHT22;7733;51.554;13.590;2023-04-01T22:35:04;6.70;99.90
15262;DHT22;7733;51.554;13.590;2023-04-01T22:43:55;6.80;99.90
15262;DHT22;7733;51.554;13.590;2023-04-01T22:49:17;6.70;99.90
15262;DHT22;7733;51.554;13.590;2023-04-01T22:52:56;6.70;99.90
15262;DHT22;7733;51.554;13.590;2023-04-01T22:55:17;6.70;99.90
15262;DHT22;7733;51.554;13.590;2023-04-01T22:57:53;6.70;99.90
15262;DHT22;7733;51.554;13.590;2023-04-01T23:05:51;6.50;99.90
15262;DHT22;7733;51.554;13.590;2023-04-01T23:08:41;6.40;99.90
15262;DHT22;7733;51.554;13.590;2023-04-01T23:11:32;6.30;99.90
15262;DHT22;7733;51.554;13.590;2023-04-01T23:16:56;6.40;99.90
15262;DHT22;7733;51.554;13.590;2023-04-01T23:22:38;6.20;99.90
15262;DHT22;7733;51.554;13.590;2023-04-01T23:25:54;6.30;99.90
15262;DHT22;7733;51.554;13.590;2023-04-01T23:34:25;6.10;99.90
15262;DHT22;7733;51.554;13.590;2023-04-01T23:37:10;6.10;99.90
15262;DHT22;7733;51.554;13.590;2023-04-01T23:39:42;6.10;99.90
15262;DHT22;7733;51.554;13.590;2023-04-01T23:42:29;6.10;99.90
15262;DHT22;7733;51.554;13.590;2023-04-01T23:45:18;6.10;99.90
15262;DHT22;7733;51.554;13.590;2023-04-01T23:47:46;6.00;99.90
15262;DHT22;7733;51.554;13.590;2023-04-01T23:50:18;6.00;99.90
15262;DHT22;7733;51.554;13.590;2023-04-01T23:52:53;6.10;99.90
15262;DHT22;7733;51.554;13.590;2023-04-01T23:55:41;6.00;99.90
15262;DHT22;7733;51.554;13.590;2023-04-01T23:58:22;6.00;99.90
